createdAt,value
2022-10-02T00:00:42.302Z,11.40
2022-10-02T00:03:17.199Z,10.90
2022-10-02T00:06:06.885Z,20.25
2022-10-02T00:08:39.013Z,14.40
2022-10-02T00:11:14.891Z,17.42
2022-10-02T00:13:48.780Z,10.82
2022-10-02T00:16:29.460Z,13.35
2022-10-02T00:18:57.640Z,7.68
2022-10-02T00:21:45.373Z,14.02
2022-10-02T00:27:10.131Z,12.48
2022-10-02T00:29:49.866Z,16.30
2022-10-02T00:32:20.236Z,10.95
2022-10-02T00:35:22.205Z,8.93
2022-10-02T00:37:57.445Z,9.73
2022-10-02T00:40:43.288Z,8.93
2022-10-02T00:43:30.016Z,17.17
2022-10-02T00:46:35.432Z,9.20
2022-10-02T00:49:21.193Z,24.48
2022-10-02T00:52:06.716Z,11.20
2022-10-02T00:54:53.258Z,9.98
2022-10-02T00:57:56.064Z,11.07
2022-10-02T01:00:23.770Z,9.63
2022-10-02T01:03:03.369Z,12.15
2022-10-02T01:05:31.261Z,15.68
2022-10-02T01:07:59.396Z,10.55
2022-10-02T01:10:28.686Z,16.88
2022-10-02T01:12:57.709Z,10.05
2022-10-02T01:15:31.993Z,10.18
2022-10-02T01:18:02.190Z,11.43
2022-10-02T01:20:36.554Z,13.45
2022-10-02T01:23:04.108Z,12.07
2022-10-02T01:25:32.358Z,9.50
2022-10-02T01:28:00.225Z,12.70
2022-10-02T01:30:30.077Z,14.40
2022-10-02T01:33:00.604Z,12.15
2022-10-02T01:35:33.821Z,16.55
2022-10-02T01:38:06.400Z,14.23
2022-10-02T01:40:36.562Z,11.40
2022-10-02T01:43:12.741Z,15.18
2022-10-02T01:46:23.938Z,8.68
2022-10-02T01:49:14.504Z,9.25
2022-10-02T01:51:53.664Z,11.52
2022-10-02T01:54:45.700Z,13.57
2022-10-02T01:57:33.285Z,10.27
2022-10-02T02:00:15.797Z,8.65
2022-10-02T02:03:02.328Z,13.73
2022-10-02T02:06:02.798Z,15.93
2022-10-02T02:08:40.742Z,14.80
2022-10-02T02:13:41.289Z,9.77
2022-10-02T02:16:32.422Z,13.35
2022-10-02T02:19:12.461Z,9.80
2022-10-02T02:21:47.382Z,8.45
2022-10-02T02:24:38.615Z,10.50
2022-10-02T02:27:11.446Z,12.18
2022-10-02T02:29:43.317Z,14.40
2022-10-02T02:32:16.336Z,16.33
2022-10-02T02:34:54.309Z,13.63
2022-10-02T02:39:54.949Z,13.52
2022-10-02T02:42:26.365Z,22.33
2022-10-02T02:44:58.123Z,15.85
2022-10-02T02:47:49.019Z,13.90
2022-10-02T02:50:47.506Z,20.35
2022-10-02T02:53:19.768Z,9.43
2022-10-02T02:55:53.452Z,16.15
2022-10-02T02:58:36.079Z,14.25
2022-10-02T03:01:03.858Z,13.40
2022-10-02T03:03:31.589Z,21.08
2022-10-02T03:06:26.303Z,14.60
2022-10-02T03:08:54.953Z,15.38
2022-10-02T03:11:30.687Z,15.00
2022-10-02T03:14:14.566Z,16.95
2022-10-02T03:17:03.260Z,10.43
2022-10-02T03:19:50.798Z,14.48
2022-10-02T03:22:41.215Z,13.07
2022-10-02T03:25:21.558Z,18.55
2022-10-02T03:28:02.323Z,15.07
2022-10-02T03:30:31.706Z,10.35
2022-10-02T03:33:01.199Z,21.50
2022-10-02T03:35:30.467Z,13.90
2022-10-02T03:38:02.312Z,12.65
2022-10-02T03:40:30.307Z,16.10
2022-10-02T03:42:58.360Z,9.98
2022-10-02T03:48:15.001Z,14.55
2022-10-02T03:50:42.842Z,9.98
2022-10-02T03:53:16.346Z,13.82
2022-10-02T03:55:55.412Z,14.50
2022-10-02T03:58:24.222Z,10.63
2022-10-02T04:01:03.752Z,16.67
2022-10-02T04:03:36.039Z,16.65
2022-10-02T04:06:03.977Z,10.23
2022-10-02T04:09:03.100Z,12.95
2022-10-02T04:11:40.652Z,18.33
2022-10-02T04:14:19.810Z,10.40
2022-10-02T04:17:05.863Z,18.10
2022-10-02T04:19:53.613Z,8.15
2022-10-02T04:22:34.686Z,16.45
2022-10-02T04:25:19.908Z,9.35
2022-10-02T04:27:53.291Z,20.67
2022-10-02T04:30:21.998Z,10.30
2022-10-02T04:32:50.698Z,17.77
2022-10-02T04:35:36.665Z,12.20
2022-10-02T04:38:10.415Z,15.43
2022-10-02T04:40:56.429Z,13.48
2022-10-02T04:43:53.701Z,18.52
2022-10-02T04:46:46.310Z,15.45
2022-10-02T04:49:19.782Z,20.90
2022-10-02T04:52:02.721Z,16.92
2022-10-02T04:55:02.400Z,18.58
2022-10-02T04:57:45.623Z,17.48
2022-10-02T05:00:18.119Z,12.60
2022-10-02T05:03:03.207Z,14.70
2022-10-02T05:05:36.422Z,15.32
2022-10-02T05:08:38.354Z,15.70
2022-10-02T05:11:27.564Z,14.40
2022-10-02T05:14:33.471Z,11.73
2022-10-02T05:17:25.237Z,12.15
2022-10-02T05:20:23.146Z,20.33
2022-10-02T05:22:56.538Z,19.77
2022-10-02T05:25:56.348Z,20.80
2022-10-02T05:28:39.310Z,24.52
2022-10-02T05:31:25.078Z,15.18
2022-10-02T05:34:09.280Z,16.13
2022-10-02T05:36:54.895Z,19.38
2022-10-02T05:39:31.316Z,13.23
2022-10-02T05:42:30.580Z,15.63
2022-10-02T05:45:24.740Z,17.02
2022-10-02T05:47:55.522Z,14.60
2022-10-02T05:50:30.012Z,19.75
2022-10-02T05:53:00.215Z,16.80
2022-10-02T05:55:53.092Z,15.95
2022-10-02T05:58:34.650Z,21.02
2022-10-02T06:01:12.708Z,15.18
2022-10-02T06:06:31.889Z,10.25
2022-10-02T06:09:05.874Z,18.98
2022-10-02T06:11:46.699Z,17.48
2022-10-02T06:14:33.922Z,41.25
2022-10-02T06:17:13.240Z,20.88
2022-10-02T06:19:43.993Z,17.63
2022-10-02T06:22:18.955Z,13.80
2022-10-02T06:25:18.967Z,15.40
2022-10-02T06:28:25.400Z,17.45
2022-10-02T06:31:02.066Z,17.70
2022-10-02T06:33:32.330Z,18.63
2022-10-02T06:36:02.957Z,19.35
2022-10-02T06:38:30.476Z,23.08
2022-10-02T06:40:58.391Z,26.45
2022-10-02T06:44:01.280Z,13.90
2022-10-02T06:46:36.937Z,16.95
2022-10-02T06:49:29.955Z,10.52
2022-10-02T06:52:23.613Z,18.00
2022-10-02T06:55:23.053Z,19.25
2022-10-02T06:58:12.005Z,15.70
2022-10-02T07:00:53.357Z,17.70
2022-10-02T07:03:33.344Z,18.95
2022-10-02T07:06:07.031Z,18.65
2022-10-02T07:09:01.099Z,23.48
2022-10-02T07:11:48.451Z,19.85
2022-10-02T07:14:59.203Z,15.68
2022-10-02T07:17:52.854Z,11.85
2022-10-02T07:20:32.826Z,7.63
2022-10-02T07:23:35.075Z,19.92
2022-10-02T07:26:31.645Z,12.82
2022-10-02T07:29:10.917Z,27.88
2022-10-02T07:31:57.218Z,12.45
2022-10-02T07:34:46.574Z,14.38
2022-10-02T07:37:32.343Z,10.65
2022-10-02T07:40:12.258Z,8.25
2022-10-02T07:43:07.148Z,21.40
2022-10-02T07:45:42.128Z,11.85
2022-10-02T07:48:12.798Z,15.50
2022-10-02T07:51:00.089Z,12.32
2022-10-02T07:53:41.089Z,14.10
2022-10-02T07:56:20.051Z,14.57
2022-10-02T07:58:54.978Z,16.95
2022-10-02T08:01:32.379Z,17.92
2022-10-02T08:04:36.693Z,13.18
2022-10-02T08:07:06.583Z,9.70
2022-10-02T08:09:43.509Z,12.25
2022-10-02T08:12:41.410Z,21.10
2022-10-02T08:15:15.868Z,20.60
2022-10-02T08:18:30.203Z,18.70
2022-10-02T08:20:55.108Z,17.88
2022-10-02T08:26:04.975Z,18.75
2022-10-02T08:28:41.398Z,17.97
2022-10-02T08:31:11.417Z,26.98
2022-10-02T08:33:39.804Z,13.25
2022-10-02T08:36:26.071Z,23.30
2022-10-02T08:39:28.716Z,14.57
2022-10-02T08:42:17.912Z,11.60
2022-10-02T08:45:09.985Z,15.50
2022-10-02T08:48:15.059Z,20.73
2022-10-02T08:50:48.666Z,16.25
2022-10-02T08:53:54.362Z,11.88
2022-10-02T08:56:35.095Z,18.48
2022-10-02T08:59:26.113Z,26.08
2022-10-02T09:02:09.371Z,13.63
2022-10-02T09:05:18.968Z,23.75
2022-10-02T09:08:08.037Z,11.68
2022-10-02T09:10:59.002Z,10.80
2022-10-02T09:14:05.957Z,19.67
2022-10-02T09:16:56.770Z,10.60
2022-10-02T09:19:42.047Z,10.23
2022-10-02T09:22:45.779Z,21.35
2022-10-02T09:25:32.050Z,12.88
2022-10-02T09:28:24.401Z,21.23
2022-10-02T09:31:20.603Z,18.85
2022-10-02T09:33:54.018Z,10.82
2022-10-02T09:36:52.802Z,13.40
2022-10-02T09:39:35.525Z,16.60
2022-10-02T09:42:47.293Z,13.60
2022-10-02T09:45:27.532Z,19.25
2022-10-02T09:48:30.395Z,23.52
2022-10-02T09:51:26.266Z,32.63
2022-10-02T09:54:01.034Z,16.05
2022-10-02T09:57:06.994Z,16.27
2022-10-02T09:59:53.337Z,13.20
2022-10-02T10:02:42.353Z,10.60
2022-10-02T10:05:15.754Z,19.95
2022-10-02T10:08:12.769Z,14.30
2022-10-02T10:11:20.546Z,21.75
2022-10-02T10:14:37.082Z,19.73
2022-10-02T10:17:09.303Z,11.13
2022-10-02T10:20:06.570Z,11.65
2022-10-02T10:22:48.988Z,14.23
2022-10-02T10:25:40.708Z,13.88
2022-10-02T10:28:53.236Z,11.23
2022-10-02T10:31:59.177Z,18.27
2022-10-02T10:34:51.310Z,14.73
2022-10-02T10:38:05.753Z,18.90
2022-10-02T10:41:09.475Z,16.13
2022-10-02T10:44:14.763Z,17.15
2022-10-02T10:47:20.265Z,22.05
2022-10-02T10:50:21.123Z,13.32
2022-10-02T10:53:19.309Z,14.07
2022-10-02T10:56:09.748Z,20.83
2022-10-02T10:59:09.510Z,11.18
2022-10-02T11:01:59.412Z,17.90
2022-10-02T11:04:40.059Z,6.95
2022-10-02T11:07:46.327Z,14.63
2022-10-02T11:10:38.113Z,9.55
2022-10-02T11:13:27.489Z,13.75
2022-10-02T11:16:33.907Z,13.20
2022-10-02T11:19:19.239Z,10.77
2022-10-02T11:22:27.324Z,10.20
2022-10-02T11:25:30.348Z,10.98
2022-10-02T11:28:24.088Z,14.40
2022-10-02T11:31:00.463Z,6.22
2022-10-02T11:33:59.949Z,8.35
2022-10-02T11:36:56.123Z,11.73
2022-10-02T11:39:50.890Z,4.97
2022-10-02T11:42:42.950Z,9.23
2022-10-02T11:45:31.720Z,13.02
2022-10-02T11:48:34.731Z,11.57
2022-10-02T11:51:26.610Z,7.22
2022-10-02T11:54:17.240Z,5.50
2022-10-02T11:57:01.221Z,5.35
2022-10-02T11:59:49.387Z,7.32
2022-10-02T12:02:32.959Z,13.18
2022-10-02T12:05:25.539Z,9.65
2022-10-02T12:08:24.218Z,11.80
2022-10-02T12:11:19.935Z,15.00
2022-10-02T12:14:05.709Z,13.88
2022-10-02T12:16:52.149Z,14.10
2022-10-02T12:19:20.465Z,10.23
2022-10-02T12:22:49.404Z,13.10
2022-10-02T12:26:06.054Z,8.80
2022-10-02T12:29:05.879Z,7.60
2022-10-02T12:31:40.013Z,8.70
2022-10-02T12:34:33.282Z,10.90
2022-10-02T12:37:00.894Z,11.98
2022-10-02T12:40:01.099Z,9.10
2022-10-02T12:42:57.563Z,15.52
2022-10-02T12:45:37.482Z,12.10
2022-10-02T12:48:31.668Z,16.95
2022-10-02T12:51:36.416Z,12.90
2022-10-02T12:54:19.463Z,8.05
2022-10-02T12:57:06.003Z,8.50
2022-10-02T12:59:55.797Z,4.90
2022-10-02T13:03:01.219Z,8.77
2022-10-02T13:05:57.595Z,13.20
2022-10-02T13:08:42.882Z,11.90
2022-10-02T13:11:35.935Z,10.90
2022-10-02T13:14:13.021Z,8.95
2022-10-02T13:16:46.740Z,11.77
2022-10-02T13:19:30.615Z,7.38
2022-10-02T13:22:15.150Z,12.73
2022-10-02T13:25:00.972Z,10.82
2022-10-02T13:27:49.611Z,9.02
2022-10-02T13:30:23.071Z,11.20
2022-10-02T13:32:52.222Z,14.50
2022-10-02T13:35:29.137Z,7.72
2022-10-02T13:38:28.672Z,7.85
2022-10-02T13:41:20.907Z,4.20
2022-10-02T13:44:21.154Z,4.00
2022-10-02T13:47:11.385Z,8.55
2022-10-02T13:49:55.862Z,7.57
2022-10-02T13:52:51.340Z,4.63
2022-10-02T13:55:29.559Z,9.00
2022-10-02T13:58:18.969Z,5.55
2022-10-02T14:00:58.665Z,3.80
2022-10-02T14:03:32.413Z,6.32
2022-10-02T14:06:31.619Z,5.10
2022-10-02T14:09:28.699Z,5.88
2022-10-02T14:12:21.273Z,6.47
2022-10-02T14:15:07.120Z,10.15
2022-10-02T14:18:16.480Z,13.57
2022-10-02T14:20:55.942Z,4.90
2022-10-02T14:23:41.784Z,6.38
2022-10-02T14:26:27.333Z,6.28
2022-10-02T14:29:32.620Z,4.28
2022-10-02T14:32:09.528Z,8.52
2022-10-02T14:35:17.693Z,6.45
2022-10-02T14:37:57.847Z,8.25
2022-10-02T14:40:32.579Z,8.70
2022-10-02T14:43:15.455Z,5.70
2022-10-02T14:46:14.160Z,6.70
2022-10-02T14:49:00.524Z,7.53
2022-10-02T14:52:00.379Z,6.78
2022-10-02T14:54:37.188Z,5.70
2022-10-02T14:57:29.989Z,5.93
2022-10-02T15:00:18.661Z,8.43
2022-10-02T15:03:11.068Z,5.57
2022-10-02T15:06:00.263Z,2.75
2022-10-02T15:08:38.603Z,8.25
2022-10-02T15:11:18.416Z,8.63
2022-10-02T15:13:52.588Z,3.85
2022-10-02T15:17:15.970Z,6.35
2022-10-02T15:19:52.582Z,11.90
2022-10-02T15:22:35.951Z,7.30
2022-10-02T15:25:34.802Z,5.43
2022-10-02T15:28:35.960Z,6.43
2022-10-02T15:31:28.119Z,3.42
2022-10-02T15:34:22.124Z,5.70
2022-10-02T15:36:52.981Z,3.33
2022-10-02T15:39:20.946Z,4.60
2022-10-02T15:44:28.599Z,8.35
2022-10-02T15:47:05.486Z,6.28
2022-10-02T15:50:00.131Z,6.53
2022-10-02T15:52:36.958Z,4.72
2022-10-02T15:55:25.209Z,7.93
2022-10-02T15:57:52.788Z,7.13
2022-10-02T16:00:22.709Z,9.20
2022-10-02T16:03:28.402Z,3.90
2022-10-02T16:06:08.148Z,4.95
2022-10-02T16:08:53.892Z,4.32
2022-10-02T16:11:46.226Z,6.30
2022-10-02T16:14:34.198Z,4.93
2022-10-02T16:17:20.127Z,4.90
2022-10-02T16:20:14.077Z,7.90
2022-10-02T16:22:48.894Z,4.20
2022-10-02T16:25:16.903Z,5.57
2022-10-02T16:28:23.619Z,2.13
2022-10-02T16:31:21.097Z,4.88
2022-10-02T16:34:01.481Z,4.65
2022-10-02T16:36:38.508Z,7.57
2022-10-02T16:39:40.044Z,6.15
2022-10-02T16:42:23.016Z,5.25
2022-10-02T16:45:16.583Z,9.20
2022-10-02T16:47:50.224Z,7.93
2022-10-02T16:50:42.158Z,6.45
2022-10-02T16:53:29.649Z,6.90
2022-10-02T16:56:27.467Z,5.85
2022-10-02T16:59:19.113Z,3.92
2022-10-02T17:02:18.300Z,8.43
2022-10-02T17:04:55.172Z,2.50
2022-10-02T17:07:43.558Z,8.23
2022-10-02T17:10:33.414Z,2.75
2022-10-02T17:13:11.655Z,8.18
2022-10-02T17:15:52.277Z,4.00
2022-10-02T17:18:58.244Z,2.63
2022-10-02T17:21:44.661Z,7.13
2022-10-02T17:24:34.921Z,7.95
2022-10-02T17:27:33.536Z,9.30
2022-10-02T17:30:24.135Z,5.18
2022-10-02T17:33:07.026Z,4.25
2022-10-02T17:35:42.496Z,10.38
2022-10-02T17:38:13.347Z,7.88
2022-10-02T17:41:07.232Z,6.88
2022-10-02T17:43:56.641Z,12.65
2022-10-02T17:46:49.751Z,8.77
2022-10-02T17:49:32.699Z,12.25
2022-10-02T17:52:23.285Z,11.23
2022-10-02T17:55:42.662Z,12.45
2022-10-02T17:58:22.741Z,7.72
2022-10-02T18:01:22.133Z,13.20
2022-10-02T18:04:02.782Z,14.00
2022-10-02T18:06:45.380Z,17.13
2022-10-02T18:09:35.294Z,10.27
2022-10-02T18:12:12.172Z,10.65
2022-10-02T18:14:58.334Z,14.38
2022-10-02T18:17:44.853Z,15.77
2022-10-02T18:20:28.213Z,14.65
2022-10-02T18:23:34.995Z,16.90
2022-10-02T18:26:25.903Z,14.15
2022-10-02T18:29:32.927Z,11.30
2022-10-02T18:32:35.978Z,14.63
2022-10-02T18:35:07.577Z,16.88
2022-10-02T18:38:04.337Z,18.90
2022-10-02T18:40:56.193Z,16.45
2022-10-02T18:43:42.006Z,13.88
2022-10-02T18:46:44.086Z,10.52
2022-10-02T18:49:14.387Z,9.95
2022-10-02T18:52:27.683Z,10.65
2022-10-02T18:55:23.315Z,8.63
2022-10-02T18:58:09.770Z,14.75
2022-10-02T19:01:08.493Z,12.45
2022-10-02T19:03:52.298Z,11.75
2022-10-02T19:06:42.450Z,13.07
2022-10-02T19:09:10.066Z,14.15
2022-10-02T19:11:56.283Z,15.55
2022-10-02T19:14:35.193Z,10.32
2022-10-02T19:17:16.874Z,11.00
2022-10-02T19:19:44.938Z,11.23
2022-10-02T19:22:32.065Z,17.67
2022-10-02T19:25:07.005Z,15.02
2022-10-02T19:27:37.216Z,14.35
2022-10-02T19:30:08.157Z,17.08
2022-10-02T19:32:48.995Z,13.50
2022-10-02T19:35:19.386Z,15.63
2022-10-02T19:37:53.737Z,12.13
2022-10-02T19:40:24.832Z,14.93
2022-10-02T19:43:02.585Z,17.90
2022-10-02T19:45:33.432Z,14.85
2022-10-02T19:48:16.852Z,18.10
2022-10-02T19:50:55.354Z,16.25
2022-10-02T19:53:35.968Z,21.83
2022-10-02T19:56:35.181Z,19.60
2022-10-02T19:59:15.227Z,31.67
2022-10-02T20:01:49.014Z,17.10
2022-10-02T20:04:25.896Z,23.02
2022-10-02T20:06:56.806Z,14.15
2022-10-02T20:09:34.040Z,20.75
2022-10-02T20:12:13.017Z,15.82
2022-10-02T20:14:55.891Z,20.30
2022-10-02T20:17:24.117Z,22.48
2022-10-02T20:19:54.356Z,16.52
2022-10-02T20:22:34.578Z,18.95
2022-10-02T20:25:07.600Z,14.90
2022-10-02T20:27:56.282Z,22.80
2022-10-02T20:30:27.175Z,27.00
2022-10-02T20:33:18.222Z,26.55
2022-10-02T20:36:01.803Z,22.55
2022-10-02T20:38:37.400Z,27.17
2022-10-02T20:41:23.569Z,27.90
2022-10-02T20:44:03.123Z,25.85
2022-10-02T20:47:30.682Z,20.90
2022-10-02T20:50:13.384Z,20.00
2022-10-02T20:53:10.735Z,17.48
2022-10-02T20:56:17.632Z,25.08
2022-10-02T20:58:57.383Z,22.35
2022-10-02T21:02:08.760Z,18.67
2022-10-02T21:05:14.077Z,25.58
2022-10-02T21:08:16.196Z,25.27
2022-10-02T21:10:45.157Z,22.50
2022-10-02T21:13:24.336Z,21.00
2022-10-02T21:16:27.687Z,20.42
2022-10-02T21:19:23.095Z,18.52
2022-10-02T21:21:56.559Z,22.40
2022-10-02T21:24:43.296Z,31.83
2022-10-02T21:27:38.547Z,27.83
2022-10-02T21:30:17.906Z,29.92
2022-10-02T21:33:10.282Z,24.45
2022-10-02T21:36:09.219Z,31.02
2022-10-02T21:39:01.949Z,31.13
2022-10-02T21:42:17.757Z,25.75
2022-10-02T21:45:29.049Z,24.95
2022-10-02T21:48:21.672Z,20.70
2022-10-02T21:51:12.129Z,27.10
2022-10-02T21:54:19.034Z,30.60
2022-10-02T21:56:52.256Z,37.22
2022-10-02T21:59:21.108Z,23.92
2022-10-02T22:02:10.854Z,24.80
2022-10-02T22:04:56.225Z,23.35
2022-10-02T22:07:40.471Z,35.13
2022-10-02T22:10:29.222Z,29.65
2022-10-02T22:13:26.677Z,31.67
2022-10-02T22:16:04.289Z,28.25
2022-10-02T22:18:34.902Z,31.50
2022-10-02T22:21:34.414Z,20.77
2022-10-02T22:24:05.054Z,26.05
2022-10-02T22:26:55.469Z,24.75
2022-10-02T22:29:35.382Z,25.27
2022-10-02T22:32:27.464Z,25.33
2022-10-02T22:35:07.729Z,22.70
2022-10-02T22:37:35.674Z,22.98
2022-10-02T22:40:07.866Z,25.70
2022-10-02T22:42:57.181Z,25.10
2022-10-02T22:45:45.791Z,27.65
2022-10-02T22:48:40.328Z,24.70
2022-10-02T22:51:08.298Z,22.15
2022-10-02T22:53:46.578Z,20.63
2022-10-02T22:56:30.454Z,17.73
2022-10-02T22:59:18.679Z,21.92
2022-10-02T23:01:55.986Z,29.58
2022-10-02T23:04:24.164Z,23.95
2022-10-02T23:07:27.015Z,25.38
2022-10-02T23:10:37.755Z,38.30
2022-10-02T23:13:21.295Z,24.80
2022-10-02T23:15:54.067Z,21.20
2022-10-02T23:18:43.025Z,21.15
2022-10-02T23:21:22.291Z,23.80
2022-10-02T23:24:05.978Z,20.50
2022-10-02T23:26:37.598Z,14.82
2022-10-02T23:29:25.721Z,24.25
2022-10-02T23:32:15.193Z,19.65
2022-10-02T23:35:04.979Z,31.40
2022-10-02T23:37:41.490Z,16.15
2022-10-02T23:40:20.025Z,21.00
2022-10-02T23:42:59.205Z,17.48
2022-10-02T23:45:54.494Z,33.00
2022-10-02T23:48:22.931Z,25.85
2022-10-02T23:53:51.352Z,20.80
2022-10-02T23:56:19.312Z,23.27
2022-10-02T23:58:46.779Z,23.83
